Time;durP1;ratioP1;P1;durP2;ratioP2;P2;SDS_P1;SDS_P2;PMS_P1;PMS_P2;Temp;Humidity;BMP_temperature;BMP_pressure;BME280_temperature;BME280_humidity;BME280_pressure;Samples;Min_cycle;Max_cycle;Signal;HPM_P1;HPM_P2
2023/07/21 00:00:17;;;;;;;17.13;11.30;;;;;;;14.00;100.00;101173.41;5010345;28;20034;-70
2023/07/21 00:02:43;;;;;;;16.92;11.13;;;;;;;13.95;100.00;101170.53;5010338;28;20452;-69
2023/07/21 00:05:09;;;;;;;17.75;11.75;;;;;;;13.94;100.00;101160.84;5010373;28;20064;-70
2023/07/21 00:07:36;;;;;;;18.70;12.18;;;;;;;13.96;100.00;101164.16;5010319;28;20030;-69
2023/07/21 00:10:07;;;;;;;18.85;12.10;;;;;;;14.01;100.00;101167.00;5010297;28;20022;-69
2023/07/21 00:12:46;;;;;;;18.08;11.95;;;;;;;13.95;100.00;101157.13;5010182;28;20022;-70
2023/07/21 00:15:15;;;;;;;19.13;12.23;;;;;;;13.95;100.00;101164.34;5028807;28;20034;-69
2023/07/21 00:17:41;;;;;;;18.85;11.32;;;;;;;13.91;100.00;101155.91;5010097;28;20062;-70
2023/07/21 00:20:12;;;;;;;18.42;13.13;;;;;;;13.91;100.00;101155.91;4992546;28;20061;-70
2023/07/21 00:22:38;;;;;;;16.15;11.48;;;;;;;13.89;100.00;101157.97;5028690;28;20029;-69
2023/07/21 00:25:10;;;;;;;17.58;10.90;;;;;;;13.91;100.00;101158.59;5028890;28;20104;-69
2023/07/21 00:27:37;;;;;;;17.77;12.02;;;;;;;13.88;100.00;101158.16;5028969;28;20084;-70
2023/07/21 00:30:02;;;;;;;16.95;10.93;;;;;;;13.92;100.00;101159.41;5028829;28;20095;-70
2023/07/21 00:32:31;;;;;;;17.35;11.45;;;;;;;13.87;100.00;101160.03;5028985;28;20037;-70
2023/07/21 00:34:57;;;;;;;17.50;11.70;;;;;;;13.81;100.00;101153.66;5029145;28;20033;-70
2023/07/21 00:37:22;;;;;;;18.05;12.23;;;;;;;13.81;100.00;101159.03;5028567;28;20025;-70
2023/07/21 00:39:48;;;;;;;18.38;13.50;;;;;;;13.79;100.00;101157.59;5028681;28;20395;-69
2023/07/21 00:42:13;;;;;;;17.15;11.85;;;;;;;13.76;100.00;101152.66;5028465;28;20045;-70
2023/07/21 00:44:38;;;;;;;18.92;12.32;;;;;;;13.76;100.00;101152.66;5028554;28;20052;-69
2023/07/21 00:47:04;;;;;;;16.65;10.95;;;;;;;13.70;100.00;101148.97;5028604;28;20025;-70
2023/07/21 00:49:32;;;;;;;17.75;12.20;;;;;;;13.70;100.00;101143.59;5010816;28;20435;-69
2023/07/21 00:51:58;;;;;;;18.42;11.32;;;;;;;13.73;100.00;101143.16;5028408;28;20474;-69
2023/07/21 00:54:23;;;;;;;17.85;11.23;;;;;;;13.76;100.00;101142.75;5028510;28;20120;-70
2023/07/21 00:56:48;;;;;;;15.77;9.93;;;;;;;13.73;100.00;101145.03;5028398;28;20057;-70
2023/07/21 00:59:14;;;;;;;17.60;10.60;;;;;;;13.68;100.00;101144.84;5028398;28;20033;-70
2023/07/21 01:01:39;;;;;;;18.30;11.48;;;;;;;13.68;100.00;101142.97;5028666;28;20087;-69
2023/07/21 01:04:05;;;;;;;20.23;11.20;;;;;;;13.70;100.00;101134.72;5028390;28;20047;-70
2023/07/21 01:06:31;;;;;;;17.80;12.00;;;;;;;13.72;100.00;101135.31;5028471;28;20075;-69
2023/07/21 01:08:59;;;;;;;16.45;10.85;;;;;;;13.72;100.00;101133.47;5028353;28;20021;-70
2023/07/21 01:11:26;;;;;;;15.77;10.60;;;;;;;13.61;100.00;101127.94;5028240;28;20037;-69
2023/07/21 01:13:54;;;;;;;16.77;10.93;;;;;;;13.60;100.00;101124.44;5028309;28;20035;-70
2023/07/21 01:16:22;;;;;;;15.52;10.77;;;;;;;13.57;100.00;101127.53;5028541;28;20032;-70
2023/07/21 01:18:50;;;;;;;17.63;11.82;;;;;;;13.50;100.00;101110.66;5028247;28;20060;-70
2023/07/21 01:21:30;;;;;;;17.40;11.15;;;;;;;13.53;100.00;101119.09;5028432;28;20037;-69
2023/07/21 01:24:04;;;;;;;17.05;12.20;;;;;;;13.52;100.00;101119.31;5028276;28;20083;-69
2023/07/21 01:26:30;;;;;;;17.08;12.10;;;;;;;13.52;100.00;101120.13;5028181;28;20037;-70
2023/07/21 01:28:56;;;;;;;16.55;10.57;;;;;;;13.50;100.00;101116.00;5028181;28;20384;-69
2023/07/21 01:31:23;;;;;;;15.63;10.85;;;;;;;13.49;100.00;101119.72;5028230;28;20029;-70
2023/07/21 01:33:51;;;;;;;16.05;10.50;;;;;;;13.48;100.00;101115.38;5028592;28;20065;-69
2023/07/21 01:36:17;;;;;;;16.55;10.95;;;;;;;13.47;100.00;101109.22;5031319;28;20112;-70
2023/07/21 01:38:44;;;;;;;16.67;10.48;;;;;;;13.41;100.00;101103.84;5031675;28;20033;-70
2023/07/21 01:41:12;;;;;;;19.65;10.35;;;;;;;13.27;100.00;101098.53;5031963;28;20030;-70
2023/07/21 01:43:38;;;;;;;19.88;10.93;;;;;;;13.28;100.00;101104.69;5031879;28;20116;-70
2023/07/21 01:46:03;;;;;;;18.23;12.02;;;;;;;13.29;100.00;101095.66;5031791;28;20440;-70
2023/07/21 01:48:28;;;;;;;18.60;11.02;;;;;;;13.27;100.00;101103.06;5013936;28;20026;-69
2023/07/21 01:50:56;;;;;;;17.98;11.60;;;;;;;13.19;100.00;101096.03;5031587;28;20040;-70
2023/07/21 01:53:28;;;;;;;18.85;12.40;;;;;;;13.17;100.00;101095.41;5031648;28;20040;-70
2023/07/21 01:56:08;;;;;;;18.02;11.25;;;;;;;13.13;100.00;101089.66;5031419;28;20055;-70
2023/07/21 01:58:35;;;;;;;16.40;11.82;;;;;;;13.16;100.00;101099.13;5031609;28;20034;-70
2023/07/21 02:01:02;;;;;;;15.63;10.52;;;;;;;13.13;100.00;101091.53;5031650;28;20541;-70
2023/07/21 02:03:28;;;;;;;18.52;11.73;;;;;;;13.11;100.00;101088.22;5031534;28;20733;-69
2023/07/21 02:05:53;;;;;;;17.83;11.00;;;;;;;13.06;100.00;101086.16;5031614;28;20040;-70
2023/07/21 02:08:20;;;;;;;19.23;11.52;;;;;;;13.06;100.00;101091.50;5031451;28;20041;-69
2023/07/21 02:10:47;;;;;;;16.77;12.15;;;;;;;13.03;100.00;101088.44;5031284;28;20392;-70
2023/07/21 02:13:14;;;;;;;15.30;10.18;;;;;;;12.92;100.00;101079.16;5031144;28;20033;-70
2023/07/21 02:15:40;;;;;;;15.00;10.90;;;;;;;12.90;100.00;101083.91;5013845;28;20041;-70
2023/07/21 02:18:05;;;;;;;15.43;10.75;;;;;;;12.85;100.00;101087.19;5031054;28;20491;-70
2023/07/21 02:20:31;;;;;;;16.25;10.48;;;;;;;12.81;100.00;101087.78;5012091;28;20041;-70
2023/07/21 02:22:57;;;;;;;17.08;11.07;;;;;;;12.76;100.00;101088.44;5011984;28;20034;-70
2023/07/21 02:25:22;;;;;;;20.15;13.00;;;;;;;12.77;100.00;101083.91;5012146;28;20397;-70
2023/07/21 02:27:48;;;;;;;18.50;11.73;;;;;;;12.76;100.00;101080.41;5012083;28;20030;-69
2023/07/21 02:30:13;;;;;;;16.38;10.27;;;;;;;12.74;100.00;101084.31;5012321;28;20466;-70
2023/07/21 02:32:38;;;;;;;16.38;11.50;;;;;;;12.74;100.00;101077.09;5011862;28;20412;-70
2023/07/21 02:35:05;;;;;;;18.45;11.98;;;;;;;12.69;100.00;101079.56;5011893;28;20092;-70
2023/07/21 02:37:31;;;;;;;16.05;10.55;;;;;;;12.64;100.00;101077.50;5030683;28;20037;-70
2023/07/21 02:39:56;;;;;;;16.55;10.90;;;;;;;12.65;100.00;101083.66;5030600;28;20535;-70
2023/07/21 02:42:21;;;;;;;18.02;11.60;;;;;;;12.64;100.00;101076.69;5031020;28;20021;-70
2023/07/21 02:44:47;;;;;;;16.98;10.48;;;;;;;12.63;100.00;101072.38;5030601;28;20065;-70
2023/07/21 02:47:16;;;;;;;16.58;10.32;;;;;;;12.61;100.00;101071.75;5030365;28;20041;-70
2023/07/21 02:49:42;;;;;;;18.70;11.82;;;;;;;12.62;100.00;101073.38;5030508;28;20099;-70
2023/07/21 02:52:07;;;;;;;18.95;10.95;;;;;;;12.59;100.00;101065.78;5030447;28;20041;-70
2023/07/21 02:54:33;;;;;;;17.73;10.68;;;;;;;12.52;100.00;101063.06;5011371;28;20123;-70
2023/07/21 02:56:59;;;;;;;16.27;10.35;;;;;;;12.55;100.00;101064.53;4993741;28;20054;-70
2023/07/21 02:59:26;;;;;;;17.08;11.45;;;;;;;12.55;100.00;101068.03;5011346;28;20444;-70
2023/07/21 03:01:56;;;;;;;15.15;10.35;;;;;;;12.56;100.00;101063.50;5011334;28;20488;-69
2023/07/21 03:04:24;;;;;;;17.05;11.50;;;;;;;12.58;100.00;101066.81;5011688;28;20069;-70
2023/07/21 03:06:49;;;;;;;16.23;11.70;;;;;;;12.55;100.00;101067.19;5011271;28;20038;-70
2023/07/21 03:09:15;;;;;;;18.38;11.63;;;;;;;12.51;100.00;101061.44;5011346;28;20440;-70
2023/07/21 03:11:40;;;;;;;17.08;10.57;;;;;;;12.42;100.00;101051.97;5011149;28;20052;-70
2023/07/21 03:14:06;;;;;;;15.32;9.68;;;;;;;12.42;100.00;101074.19;5011222;28;20026;-70
2023/07/21 03:16:32;;;;;;;16.92;10.93;;;;;;;12.41;100.00;101075.19;5011113;28;20030;-70
2023/07/21 03:18:57;;;;;;;16.13;10.88;;;;;;;12.39;100.00;101068.41;5011109;28;20022;-70
2023/07/21 03:21:22;;;;;;;16.00;9.52;;;;;;;12.36;100.00;101066.97;5011014;28;20065;-70
2023/07/21 03:23:48;;;;;;;16.98;11.05;;;;;;;12.35;100.00;101068.00;5029831;28;20041;-69
2023/07/21 03:26:13;;;;;;;17.55;11.20;;;;;;;12.34;100.00;101069.03;5030048;28;20075;-70
2023/07/21 03:28:39;;;;;;;17.38;11.10;;;;;;;12.36;100.00;101069.63;5029998;28;20637;-70
2023/07/21 03:31:04;;;;;;;16.98;11.90;;;;;;;12.34;100.00;101065.53;5011685;28;20075;-70
2023/07/21 03:33:29;;;;;;;16.40;10.80;;;;;;;12.32;100.00;101064.91;5029798;28;20053;-70
2023/07/21 03:36:00;;;;;;;17.02;11.15;;;;;;;12.32;100.00;101065.75;5029783;28;20442;-70
2023/07/21 03:38:25;;;;;;;18.55;11.23;;;;;;;12.29;100.00;101060.81;4995577;28;20492;-70
2023/07/21 03:40:59;;;;;;;17.73;11.35;;;;;;;12.32;100.00;101064.91;5029727;28;20021;-70
2023/07/21 03:43:25;;;;;;;16.63;11.73;;;;;;;12.32;100.00;101064.91;5029432;28;20057;-70
2023/07/21 03:45:58;;;;;;;15.52;11.05;;;;;;;12.27;100.00;101046.81;5011904;28;20484;-70
2023/07/21 03:48:27;;;;;;;17.15;11.98;;;;;;;12.32;100.00;101060.38;5029489;28;20123;-70
2023/07/21 03:51:02;;;;;;;16.90;11.38;;;;;;;12.34;100.00;101069.03;5029217;28;20171;-70
2023/07/21 03:53:28;;;;;;;16.60;11.20;;;;;;;12.32;100.00;101063.06;5029384;28;20499;-70
2023/07/21 03:55:54;;;;;;;16.25;10.43;;;;;;;12.29;100.00;101060.81;5029039;28;20053;-69
2023/07/21 03:58:20;;;;;;;18.85;11.77;;;;;;;12.31;100.00;101060.56;5028509;28;20047;-70
2023/07/21 04:00:45;;;;;;;16.08;11.13;;;;;;;12.30;100.00;101069.63;5029073;28;20037;-70
2023/07/21 04:03:12;;;;;;;17.92;11.68;;;;;;;12.31;100.00;101063.25;5029157;28;20039;-70
2023/07/21 04:05:37;;;;;;;17.92;11.52;;;;;;;12.32;100.00;101070.28;5011205;28;20072;-70
2023/07/21 04:08:03;;;;;;;16.63;10.40;;;;;;;12.33;100.00;101074.59;5029135;28;20060;-70
2023/07/21 04:10:30;;;;;;;14.98;9.95;;;;;;;12.27;100.00;101057.50;5029198;28;20042;-70
2023/07/21 04:12:56;;;;;;;17.23;10.20;;;;;;;12.29;100.00;101055.44;5011244;28;20029;-70
2023/07/21 04:15:22;;;;;;;17.55;10.52;;;;;;;12.23;100.00;101046.34;5028894;28;20073;-70
2023/07/21 04:17:47;;;;;;;16.00;10.77;;;;;;;12.26;100.00;101059.34;5028867;28;20025;-70
2023/07/21 04:20:13;;;;;;;17.25;11.52;;;;;;;12.22;100.00;101050.06;5028778;28;20049;-70
2023/07/21 04:22:39;;;;;;;19.60;12.00;;;;;;;12.25;100.00;101060.38;5028820;28;20048;-70
2023/07/21 04:25:05;;;;;;;18.40;11.75;;;;;;;12.28;100.00;101049.25;5029256;28;20025;-70
2023/07/21 04:27:30;;;;;;;16.23;11.15;;;;;;;12.32;100.00;101043.53;5028808;28;20132;-70
2023/07/21 04:29:56;;;;;;;17.25;10.82;;;;;;;12.33;100.00;101040.63;5028678;28;20112;-70
2023/07/21 04:32:21;;;;;;;17.40;11.60;;;;;;;12.34;100.00;101036.09;5010932;28;20036;-70
2023/07/21 04:34:47;;;;;;;20.52;11.65;;;;;;;12.37;100.00;101039.22;5028525;28;20029;-70
2023/07/21 04:37:13;;;;;;;18.40;11.55;;;;;;;12.37;100.00;101036.53;5028715;28;20033;-70
2023/07/21 04:39:42;;;;;;;18.63;10.98;;;;;;;12.39;100.00;101036.31;5009572;28;20038;-70
2023/07/21 04:42:11;;;;;;;20.15;12.18;;;;;;;12.39;100.00;101033.63;5009700;28;20029;-70
2023/07/21 04:44:36;;;;;;;17.65;10.60;;;;;;;12.44;100.00;101028.50;5009618;28;20062;-70
2023/07/21 04:47:04;;;;;;;18.58;12.60;;;;;;;12.48;100.00;101032.44;5009734;28;20485;-70
2023/07/21 04:49:30;;;;;;;19.13;12.95;;;;;;;12.57;100.00;101035.72;5009543;28;20036;-70
2023/07/21 04:51:58;;;;;;;19.15;12.43;;;;;;;12.62;100.00;101027.91;5009757;28;20388;-70
2023/07/21 04:54:26;;;;;;;18.13;11.52;;;;;;;12.67;100.00;101036.94;5009681;28;20120;-70
2023/07/21 04:56:52;;;;;;;18.35;12.38;;;;;;;12.69;100.00;101031.41;5009298;28;20053;-70
2023/07/21 04:59:18;;;;;;;18.30;12.27;;;;;;;12.80;100.00;101040.66;5009458;28;20030;-70
2023/07/21 05:01:47;;;;;;;19.90;12.40;;;;;;;12.89;100.00;101034.91;5009551;28;20033;-70
2023/07/21 05:04:14;;;;;;;20.13;13.95;;;;;;;13.00;100.00;101035.31;5009946;28;20041;-70
2023/07/21 05:06:42;;;;;;;19.60;14.02;;;;;;;13.13;100.00;101040.63;5009364;28;20029;-70
2023/07/21 05:09:08;;;;;;;22.92;14.13;;;;;;;13.22;100.00;101041.22;5011299;28;20033;-70
2023/07/21 05:11:33;;;;;;;20.13;13.50;;;;;;;13.30;100.00;101038.34;5013510;28;20030;-70
2023/07/21 05:14:01;;;;;;;20.00;14.43;;;;;;;13.35;100.00;101036.69;5013921;28;20170;-70
2023/07/21 05:16:26;;;;;;;21.70;14.32;;;;;;;13.45;100.00;101038.13;5022648;28;20038;-70
2023/07/21 05:18:52;;;;;;;20.45;14.43;;;;;;;13.49;100.00;101034.81;5032329;28;20044;-70
2023/07/21 05:21:17;;;;;;;21.20;15.32;;;;;;;13.57;100.00;101039.09;5032248;28;20026;-70
2023/07/21 05:23:43;;;;;;;23.15;14.32;;;;;;;13.63;100.00;101042.81;5032385;28;20472;-70
2023/07/21 05:26:08;;;;;;;21.08;14.75;;;;;;;13.67;100.00;101049.38;5032306;28;20427;-70
2023/07/21 05:28:35;;;;;;;21.70;16.85;;;;;;;13.68;100.00;101042.97;5032453;28;20030;-70
2023/07/21 05:31:00;;;;;;;21.05;15.27;;;;;;;13.72;100.00;101038.81;5032233;28;20072;-70
2023/07/21 05:33:25;;;;;;;20.13;16.15;;;;;;;13.77;100.00;101034.47;5032112;28;20391;-70
2023/07/21 05:35:51;;;;;;;21.80;15.32;;;;;;;13.88;100.00;101037.53;5032018;28;20099;-70
2023/07/21 05:38:16;;;;;;;19.20;14.55;;;;;;;14.00;100.00;101030.44;5032018;28;20041;-70
2023/07/21 05:40:42;;;;;;;21.92;16.38;;;;;;;14.07;100.00;101033.94;5031742;28;20061;-70
2023/07/21 05:43:08;;;;;;;22.15;16.25;;;;;;;14.15;100.00;101040.91;5014332;28;20100;-70
2023/07/21 05:45:37;;;;;;;22.42;15.98;;;;;;;14.19;100.00;101042.91;5012913;28;20397;-70
2023/07/21 05:48:03;;;;;;;22.63;14.02;;;;;;;14.28;100.00;101043.50;5013047;28;20052;-70
2023/07/21 05:50:28;;;;;;;22.73;15.10;;;;;;;14.34;100.00;101055.22;5012658;28;20503;-70
2023/07/21 05:52:54;;;;;;;20.98;13.88;;;;;;;14.41;100.00;101045.28;5013048;28;20033;-70
2023/07/21 05:55:19;;;;;;;21.80;15.25;;;;;;;14.50;100.00;101045.81;5012870;28;20489;-70
2023/07/21 05:57:44;;;;;;;18.88;13.70;;;;;;;14.59;100.00;101047.22;5012932;28;20057;-69
2023/07/21 06:00:14;;;;;;;23.38;16.45;;;;;;;14.70;100.00;101041.16;5012718;28;20045;-70
2023/07/21 06:02:40;;;;;;;19.88;14.80;;;;;;;14.71;100.00;101032.03;5012826;28;20038;-70
2023/07/21 06:05:07;;;;;;;19.42;13.13;;;;;;;14.83;100.00;101041.03;5012661;28;20392;-70
2023/07/21 06:07:32;;;;;;;19.20;14.30;;;;;;;14.85;100.00;101040.81;5012597;28;20082;-70
2023/07/21 06:09:57;;;;;;;21.75;15.23;;;;;;;14.91;100.00;101042.63;5012774;28;20883;-71
2023/07/21 06:12:23;;;;;;;22.02;15.10;;;;;;;14.98;100.00;101045.22;5012287;28;20084;-70
2023/07/21 06:14:48;;;;;;;20.98;15.93;;;;;;;15.08;100.00;101049.06;5012325;28;20033;-70
2023/07/21 06:17:13;;;;;;;23.10;15.57;;;;;;;15.13;100.00;101045.72;5012232;28;20049;-70
2023/07/21 06:19:39;;;;;;;21.20;15.70;;;;;;;15.21;100.00;101047.28;5012450;28;20038;-70
2023/07/21 06:22:05;;;;;;;24.30;17.38;;;;;;;15.38;100.00;101050.19;5025971;28;20104;-70
2023/07/21 06:24:30;;;;;;;25.15;18.23;;;;;;;15.55;100.00;101043.19;5031229;28;20503;-70
2023/07/21 06:26:56;;;;;;;25.80;18.25;;;;;;;15.69;100.00;101049.25;5031123;28;20033;-70
2023/07/21 06:29:21;;;;;;;22.40;16.80;;;;;;;15.76;100.00;101042.75;5031133;28;20856;-70
2023/07/21 06:31:47;;;;;;;22.52;15.32;;;;;;;15.81;100.00;101046.63;5031074;28;20543;-70
2023/07/21 06:34:12;;;;;;;22.38;16.17;;;;;;;15.86;100.00;101049.47;5030821;28;20033;-70
2023/07/21 06:36:38;;;;;;;22.65;16.52;;;;;;;15.88;100.00;101048.19;5030992;28;20041;-70
2023/07/21 06:39:05;;;;;;;23.20;16.13;;;;;;;15.95;100.00;101045.41;5030939;28;20385;-68
2023/07/21 06:41:30;;;;;;;21.73;15.15;;;;;;;15.99;100.00;101043.91;5022925;28;20493;-68
2023/07/21 06:43:55;;;;;;;24.55;15.10;;;;;;;16.09;100.00;101038.81;5011889;28;20045;-67
2023/07/21 06:46:21;;;;;;;21.23;15.40;;;;;;;16.19;100.00;101041.78;5011785;28;20113;-68
2023/07/21 06:48:46;;;;;;;24.80;17.67;;;;;;;16.27;100.00;101037.09;4993720;28;20053;-67
2023/07/21 06:51:11;;;;;;;24.27;15.60;;;;;;;16.35;100.00;101034.91;5011509;28;20413;-68
2023/07/21 06:53:37;;;;;;;22.55;15.95;;;;;;;16.43;100.00;101034.56;5011909;28;20030;-68
2023/07/21 06:56:02;;;;;;;21.30;15.95;;;;;;;16.49;100.00;101032.81;4993677;28;20112;-67
2023/07/21 06:58:27;;;;;;;24.00;16.10;;;;;;;16.55;100.00;101029.19;5011715;28;20033;-68
2023/07/21 07:00:57;;;;;;;21.90;15.23;;;;;;;16.56;100.00;101040.81;5011524;28;20030;-68
2023/07/21 07:03:22;;;;;;;23.13;14.75;;;;;;;16.52;100.00;101024.28;5014989;28;20112;-72
2023/07/21 07:05:49;;;;;;;20.23;13.90;;;;;;;16.65;100.00;101036.72;5013661;28;20104;-66
2023/07/21 07:08:15;;;;;;;20.35;14.55;;;;;;;16.68;100.00;101030.03;5011002;28;20030;-69
2023/07/21 07:10:41;;;;;;;20.83;13.52;;;;;;;16.75;100.00;101030.75;5010965;28;20040;-68
2023/07/21 07:13:06;;;;;;;21.90;15.25;;;;;;;16.79;100.00;101031.94;5011282;28;20029;-69
2023/07/21 07:15:32;;;;;;;22.40;14.05;;;;;;;16.84;100.00;101032.06;5010953;28;20068;-69
2023/07/21 07:17:58;;;;;;;20.48;13.20;;;;;;;16.88;100.00;101032.44;5011331;28;20372;-69
2023/07/21 07:20:25;;;;;;;21.77;13.77;;;;;;;16.93;100.00;101033.38;5010544;28;20034;-69
2023/07/21 07:22:50;;;;;;;20.05;13.07;;;;;;;16.99;100.00;101035.13;5011059;28;20136;-68
2023/07/21 07:25:16;;;;;;;19.48;12.48;;;;;;;17.04;100.00;101031.72;5011032;28;20108;-69
2023/07/21 07:27:41;;;;;;;19.35;12.18;;;;;;;17.12;100.00;101030.56;4993354;28;20030;-68
2023/07/21 07:30:07;;;;;;;19.88;11.85;;;;;;;17.18;100.00;101037.69;5023937;28;20449;-69
2023/07/21 07:32:32;;;;;;;20.83;13.95;;;;;;;17.26;100.00;101031.94;5009625;28;20034;-67
2023/07/21 07:34:58;;;;;;;15.90;10.52;;;;;;;17.38;100.00;101035.44;5010786;28;20030;-67
2023/07/21 07:37:25;;;;;;;19.70;12.15;;;;;;;17.43;100.00;101040.94;5010903;28;20029;-68
2023/07/21 07:39:51;;;;;;;18.40;11.50;;;;;;;17.42;99.27;101039.31;5010831;28;20058;-67
2023/07/21 07:42:16;;;;;;;17.30;10.38;;;;;;;17.43;100.00;101034.72;5010895;28;20044;-69
2023/07/21 07:44:42;;;;;;;17.92;11.13;;;;;;;17.50;99.27;101038.94;4992768;28;20030;-67
2023/07/21 07:47:08;;;;;;;19.50;11.48;;;;;;;17.68;100.00;101037.13;5010490;28;20045;-70
2023/07/21 07:49:35;;;;;;;17.23;10.50;;;;;;;17.81;99.48;101038.75;4993002;28;20061;-70
2023/07/21 07:52:00;;;;;;;17.83;10.40;;;;;;;17.92;97.66;101046.81;4993086;28;20045;-68
2023/07/21 07:54:35;;;;;;;19.77;10.93;;;;;;;17.96;96.94;101047.16;5086711;27;20396;-67
2023/07/21 07:57:00;;;;;;;15.60;8.93;;;;;;;17.95;93.10;101046.34;5086012;28;20068;-69
2023/07/21 07:59:26;;;;;;;15.18;8.52;;;;;;;18.05;95.79;101044.88;5086517;28;20071;-70
2023/07/21 08:01:51;;;;;;;14.68;8.52;;;;;;;18.10;91.61;101047.66;5086214;28;20039;-67
2023/07/21 08:04:16;;;;;;;14.10;7.82;;;;;;;18.15;90.39;101056.66;5086182;28;20174;-69
2023/07/21 08:06:42;;;;;;;14.73;7.85;;;;;;;18.22;89.75;101051.13;5085676;28;20056;-69
2023/07/21 08:09:09;;;;;;;11.75;6.75;;;;;;;18.26;88.38;101049.59;5085017;28;20047;-69
2023/07/21 08:11:35;;;;;;;13.05;6.80;;;;;;;18.34;88.86;101049.19;5085024;28;20028;-69
2023/07/21 08:14:00;;;;;;;13.32;7.05;;;;;;;18.44;88.48;101050.44;5085288;28;20360;-69
2023/07/21 08:16:27;;;;;;;12.20;7.38;;;;;;;18.51;87.78;101049.19;5084539;28;20066;-69
2023/07/21 08:18:52;;;;;;;11.27;7.35;;;;;;;18.64;88.50;101047.25;5086043;28;20040;-69
2023/07/21 08:21:23;;;;;;;11.57;7.07;;;;;;;18.87;86.47;101047.13;5085019;28;20032;-69
2023/07/21 08:23:50;;;;;;;12.18;7.93;;;;;;;18.87;85.37;101036.31;5084643;28;20051;-69
2023/07/21 08:26:16;;;;;;;12.60;7.30;;;;;;;19.20;84.82;101040.00;5083865;28;20483;-69
2023/07/21 08:28:41;;;;;;;13.60;7.55;;;;;;;19.35;82.91;101042.09;5083989;28;20039;-69
2023/07/21 08:31:08;;;;;;;13.27;6.75;;;;;;;19.65;80.88;101042.50;5083732;28;20454;-69
2023/07/21 08:33:34;;;;;;;13.00;7.00;;;;;;;20.14;80.75;101045.22;5084058;28;20090;-69
2023/07/21 08:35:59;;;;;;;13.27;7.72;;;;;;;20.59;78.62;101048.63;5084463;28;20040;-69
2023/07/21 08:38:25;;;;;;;12.75;7.53;;;;;;;20.95;77.03;101030.72;5084672;28;20028;-69
2023/07/21 08:40:58;;;;;;;13.57;7.40;;;;;;;21.08;77.07;101044.91;5084740;28;20548;-69
2023/07/21 08:43:24;;;;;;;10.98;7.47;;;;;;;20.89;74.96;101045.34;5084341;28;20046;-69
2023/07/21 08:45:50;;;;;;;9.35;6.15;;;;;;;20.85;75.58;101048.81;5083267;28;20028;-69
2023/07/21 08:48:17;;;;;;;11.10;6.57;;;;;;;20.86;76.92;101043.16;5083385;28;20021;-69
2023/07/21 08:50:43;;;;;;;15.98;6.47;;;;;;;20.71;74.99;101041.13;5085184;28;20028;-69
2023/07/21 08:53:09;;;;;;;11.48;5.72;;;;;;;20.71;72.12;101049.25;5083197;28;20044;-69
2023/07/21 08:55:34;;;;;;;11.23;5.72;;;;;;;20.93;71.74;101053.75;5084779;28;20082;-69
2023/07/21 08:58:00;;;;;;;10.18;6.13;;;;;;;21.20;71.38;101050.97;5085324;28;20107;-69
2023/07/21 09:00:27;;;;;;;10.07;6.18;;;;;;;21.41;68.12;101051.91;5084891;28;20032;-69
2023/07/21 09:02:59;;;;;;;8.02;6.15;;;;;;;21.87;70.10;101036.59;5085091;28;20028;-69
2023/07/21 09:05:25;;;;;;;10.23;5.70;;;;;;;21.81;66.88;101037.66;5074491;28;20035;-69
2023/07/21 09:07:51;;;;;;;8.35;5.53;;;;;;;21.44;69.55;101052.19;5071671;28;20048;-69
2023/07/21 09:10:33;;;;;;;7.95;5.40;;;;;;;21.08;73.39;101045.72;5071544;28;20055;-69
2023/07/21 09:13:02;;;;;;;9.27;5.22;;;;;;;20.58;69.43;101047.00;5071362;28;20113;-69
2023/07/21 09:15:27;;;;;;;9.07;5.25;;;;;;;20.29;71.38;101043.72;5071380;28;20442;-69
2023/07/21 09:17:53;;;;;;;10.68;5.15;;;;;;;20.14;71.08;101050.63;5071608;28;20063;-69
2023/07/21 09:20:19;;;;;;;8.63;4.75;;;;;;;20.11;70.22;101050.31;5071397;28;20047;-69
2023/07/21 09:22:50;;;;;;;9.02;4.90;;;;;;;20.13;71.91;101043.59;5071415;28;20426;-69
2023/07/21 09:25:20;;;;;;;8.50;5.47;;;;;;;20.18;71.04;101042.00;5071104;28;20437;-69
2023/07/21 09:27:56;;;;;;;6.75;4.88;;;;;;;20.20;70.75;101045.25;5071324;28;20051;-69
2023/07/21 09:30:22;;;;;;;10.23;6.97;;;;;;;20.24;71.19;101044.50;5071411;28;20107;-69
2023/07/21 09:32:53;;;;;;;7.60;4.10;;;;;;;20.42;71.98;101040.59;5071134;28;20024;-69
2023/07/21 09:35:19;;;;;;;7.63;3.83;;;;;;;20.38;66.79;101038.66;5071082;28;20028;-69
2023/07/21 09:37:49;;;;;;;6.97;4.05;;;;;;;20.32;67.15;101038.63;5070864;28;20040;-69
2023/07/21 09:40:14;;;;;;;6.82;4.22;;;;;;;20.29;66.90;101035.59;5070852;28;20035;-69
2023/07/21 09:42:42;;;;;;;5.90;3.55;;;;;;;20.35;69.21;101021.84;5070987;28;20020;-69
2023/07/21 09:45:08;;;;;;;6.07;4.22;;;;;;;20.42;67.93;101031.66;5070877;28;20441;-69
2023/07/21 09:47:37;;;;;;;8.18;4.40;;;;;;;20.53;66.74;101031.47;5070804;28;20361;-69
2023/07/21 09:50:03;;;;;;;6.72;4.60;;;;;;;20.62;67.10;101022.91;5070907;28;20036;-69
2023/07/21 09:52:36;;;;;;;7.75;4.38;;;;;;;20.70;66.50;101025.16;5070580;28;20084;-69
2023/07/21 09:55:10;;;;;;;6.30;3.85;;;;;;;20.86;65.54;101012.50;5070913;28;20020;-69
2023/07/21 09:57:45;;;;;;;5.63;3.90;;;;;;;20.90;66.60;101017.13;5070622;28;20025;-69
2023/07/21 10:00:13;;;;;;;8.50;4.35;;;;;;;21.10;66.99;101018.34;5070543;28;20020;-69
2023/07/21 10:02:43;;;;;;;10.25;6.45;;;;;;;21.33;67.16;101017.94;5070489;28;20035;-69
2023/07/21 10:05:10;;;;;;;10.30;5.63;;;;;;;21.26;67.94;101002.97;5070409;28;20024;-69
2023/07/21 10:07:37;;;;;;;11.63;6.13;;;;;;;21.23;65.24;101010.53;5070544;28;20032;-69
2023/07/21 10:10:05;;;;;;;12.50;6.90;;;;;;;21.12;66.98;101010.78;5070425;28;20476;-69
2023/07/21 10:12:51;;;;;;;16.30;6.63;;;;;;;21.09;68.21;101013.97;5070274;28;20036;-69
2023/07/21 10:15:19;;;;;;;10.07;5.97;;;;;;;21.33;68.37;101007.06;5068707;28;20026;-69
2023/07/21 10:18:06;;;;;;;9.90;5.97;;;;;;;21.72;67.14;101006.69;5069411;28;20028;-69
2023/07/21 10:20:39;;;;;;;11.65;6.65;;;;;;;21.86;63.09;101004.28;5070460;28;20028;-69
2023/07/21 10:23:05;;;;;;;14.70;7.10;;;;;;;21.76;62.26;101007.78;5069982;28;20093;-69
2023/07/21 10:25:48;;;;;;;11.93;6.28;;;;;;;21.71;65.70;101005.06;5069936;28;20567;-69
2023/07/21 10:28:14;;;;;;;9.98;5.40;;;;;;;21.65;62.91;101004.22;5069686;28;20029;-69
2023/07/21 10:30:41;;;;;;;9.40;6.25;;;;;;;21.49;62.52;101010.69;5069599;28;20027;-69
2023/07/21 10:33:18;;;;;;;11.00;6.28;;;;;;;21.41;67.04;101003.88;5068949;28;20056;-69
2023/07/21 10:35:43;;;;;;;10.82;5.28;;;;;;;21.27;66.20;101005.41;5069878;28;20016;-69
2023/07/21 10:38:14;;;;;;;8.32;5.47;;;;;;;21.02;65.97;101001.47;5068481;28;20566;-69
2023/07/21 10:40:46;;;;;;;9.10;5.47;;;;;;;20.73;66.59;100995.63;5068401;28;20052;-69
2023/07/21 10:43:12;;;;;;;10.13;6.35;;;;;;;20.68;67.67;101002.91;5068975;28;20051;-66
2023/07/21 10:45:38;;;;;;;10.93;5.78;;;;;;;20.61;67.50;101003.13;5068853;28;20040;-69
2023/07/21 10:48:15;;;;;;;11.35;6.32;;;;;;;20.61;68.38;101003.13;5069051;28;20032;-69
2023/07/21 10:50:58;;;;;;;12.32;6.97;;;;;;;20.56;68.49;101000.38;5068217;28;20509;-69
2023/07/21 10:53:24;;;;;;;11.15;6.32;;;;;;;20.49;71.35;101005.19;5068155;28;20426;-69
2023/07/21 10:55:53;;;;;;;15.18;7.78;;;;;;;20.38;70.52;100998.84;5068687;28;20047;-69
2023/07/21 10:58:19;;;;;;;14.63;7.57;;;;;;;20.39;73.35;100999.69;5068517;28;20032;-69
2023/07/21 11:00:50;;;;;;;12.07;7.13;;;;;;;20.46;73.40;101008.38;5069124;28;20044;-69
2023/07/21 11:03:16;;;;;;;12.32;7.55;;;;;;;20.44;71.49;100997.00;5069300;28;20029;-69
2023/07/21 11:05:42;;;;;;;13.35;7.68;;;;;;;20.52;72.31;100997.34;5069409;28;20032;-69